CheckWX is a tool to help pilots better visualize weather data.  It is not intended as a substitute for an official pre-flight weather briefing.

01:38:13 UTC

HESC TAF
St Catherine International Airport
Egypt
TAF HESC 232300Z 2400/2506 29008KT CAVOK

Feb-24@
00:00 UTC

Feb-24 @ 00:00 UTC

Feb-25@
06:00 UTC

Feb-25 @ 06:00 UTC

TAF HESC 232300Z 2400/2506 29008KT CAVOK
Wind
  • 290° at 8 KTS
Conditions
No significant weather
Cloud Levels
  • No significant clouds